Weather at Nairobi Wilson Airport

Public forecast

Using degrees Celsius for public forecast. Weather courtesy of forecast.io.

Current aviation weather report (METAR) for Nairobi Wilson Airport

Retrieved 2020/10/20 10:00 UTC (22 minutes ago):

HKNW 201000Z 09004KT 9999 BKN023 BKN080 21/14 Q1020 RERA

Aviation forecast (TAF) for Nairobi Wilson Airport

Retrieved 2020/10/20 06:06 UTC (4 hours ago):

TAF HKNW 200500Z 2006/2106 10010KT 9999 BKN023 TEMPO 2012/2016 -TSRA FEW020CB BKN021 BKN080 BECMG 2120/2123 VRB02KT NSW BKN017 BKN080